Time;durP1;ratioP1;P1;durP2;ratioP2;P2;SDS_P1;SDS_P2;PMS_P1;PMS_P2;Temp;Humidity;BMP_temperature;BMP_pressure;BME280_temperature;BME280_humidity;BME280_pressure;Samples;Min_cycle;Max_cycle;Signal;HPM_P1;HPM_P2
2021/03/11 00:00:36;;;;;;;8.27;6.07;;;6.50;99.90;;;;;;4994391;28;20661;-83
2021/03/11 00:03:06;;;;;;;5.37;3.13;;;6.50;99.90;;;;;;5023527;28;20277;-86
2021/03/11 00:05:32;;;;;;;7.67;5.17;;;6.50;99.90;;;;;;5014770;28;20647;-86
2021/03/11 00:07:58;;;;;;;7.90;4.17;;;6.50;99.90;;;;;;5027360;28;20195;-83
2021/03/11 00:10:24;;;;;;;4.60;3.53;;;6.50;99.90;;;;;;5028345;28;20233;-83
2021/03/11 00:12:50;;;;;;;8.17;5.47;;;6.50;99.90;;;;;;4997331;28;20214;-83
2021/03/11 00:15:19;;;;;;;9.70;6.20;;;6.50;99.90;;;;;;5030715;28;20732;-83
2021/03/11 00:17:45;;;;;;;7.53;5.53;;;6.50;99.90;;;;;;5021507;28;20200;-84
2021/03/11 00:20:14;;;;;;;6.97;5.43;;;6.50;99.90;;;;;;5010964;28;20215;-82
2021/03/11 00:22:40;;;;;;;3.43;3.10;;;6.50;99.90;;;;;;5028644;28;20179;-83
2021/03/11 00:25:11;;;;;;;7.00;4.33;;;6.50;99.90;;;;;;5010195;28;20708;-83
2021/03/11 00:27:38;;;;;;;4.23;3.87;;;6.60;99.90;;;;;;5026635;28;20206;-82
2021/03/11 00:30:05;;;;;;;6.07;4.53;;;6.60;99.90;;;;;;5028883;28;20286;-83
2021/03/11 00:32:31;;;;;;;5.73;4.53;;;6.60;99.90;;;;;;5014057;28;20276;-83
2021/03/11 00:34:57;;;;;;;6.27;4.20;;;6.60;99.90;;;;;;5013930;28;20186;-84
2021/03/11 00:37:23;;;;;;;10.73;6.93;;;6.60;99.90;;;;;;5015292;28;21138;-85
2021/03/11 00:39:48;;;;;;;5.07;3.90;;;6.60;99.90;;;;;;5014028;28;20609;-83
2021/03/11 00:42:14;;;;;;;8.13;4.93;;;6.60;99.90;;;;;;5013810;28;20226;-84
2021/03/11 00:44:40;;;;;;;7.77;5.40;;;6.60;99.90;;;;;;4991711;28;20215;-83
2021/03/11 00:47:07;;;;;;;6.17;4.03;;;6.70;99.90;;;;;;4982420;28;20229;-83
2021/03/11 00:49:33;;;;;;;7.67;4.67;;;6.70;99.90;;;;;;5014793;28;20217;-84
2021/03/11 00:52:00;;;;;;;5.37;4.70;;;6.70;99.90;;;;;;5013197;28;20221;-82
2021/03/11 00:54:26;;;;;;;5.33;4.63;;;6.70;99.90;;;;;;4997428;28;20214;-84
2021/03/11 00:56:52;;;;;;;6.87;4.03;;;6.70;99.90;;;;;;4997402;28;20241;-83
2021/03/11 00:59:18;;;;;;;4.07;3.70;;;6.70;99.90;;;;;;5013376;28;20261;-87
2021/03/11 01:01:43;;;;;;;7.27;5.60;;;6.70;99.90;;;;;;5012217;28;20727;-82
2021/03/11 01:04:10;;;;;;;6.60;3.17;;;6.80;99.90;;;;;;4978479;28;20270;-84
2021/03/11 01:06:36;;;;;;;7.20;6.37;;;6.70;99.90;;;;;;5009134;28;21327;-83
2021/03/11 01:09:03;;;;;;;5.00;3.57;;;6.80;99.90;;;;;;5013405;28;20222;-83
2021/03/11 01:11:28;;;;;;;3.23;3.03;;;6.70;99.90;;;;;;4993367;28;20222;-86
2021/03/11 01:13:54;;;;;;;7.90;5.60;;;6.80;99.90;;;;;;5026788;28;20186;-87
2021/03/11 01:16:20;;;;;;;4.20;3.67;;;6.80;99.90;;;;;;5027699;28;20183;-85
2021/03/11 01:18:46;;;;;;;6.77;5.27;;;6.80;99.90;;;;;;4993869;28;20232;-84
2021/03/11 01:21:12;;;;;;;2.93;2.57;;;6.80;99.90;;;;;;5009353;28;20245;-83
2021/03/11 01:23:37;;;;;;;3.37;3.13;;;6.80;99.90;;;;;;5009205;28;20222;-84
2021/03/11 01:26:03;;;;;;;6.70;5.23;;;6.80;99.90;;;;;;4992884;28;20280;-83
2021/03/11 01:28:29;;;;;;;6.50;3.80;;;6.80;99.90;;;;;;4994749;28;20218;-83
2021/03/11 01:30:55;;;;;;;2.27;2.07;;;6.80;99.90;;;;;;5025884;28;20582;-84
2021/03/11 01:33:20;;;;;;;4.03;3.53;;;6.80;99.90;;;;;;5024327;28;20211;-86
2021/03/11 01:35:46;;;;;;;7.80;4.37;;;6.80;99.90;;;;;;5008602;28;20571;-83
2021/03/11 01:38:12;;;;;;;6.73;4.17;;;6.80;99.90;;;;;;5009629;28;20300;-83
2021/03/11 01:40:38;;;;;;;4.60;3.27;;;6.80;99.90;;;;;;4994502;28;20663;-85
2021/03/11 01:43:03;;;;;;;10.00;5.23;;;6.80;99.90;;;;;;5010215;28;20214;-82
2021/03/11 01:45:30;;;;;;;7.03;4.00;;;6.80;99.90;;;;;;5007919;28;20215;-83
2021/03/11 01:47:56;;;;;;;2.67;2.47;;;6.80;99.90;;;;;;5016326;28;20633;-84
2021/03/11 01:50:21;;;;;;;3.87;3.13;;;6.80;99.90;;;;;;5009341;28;20304;-87
2021/03/11 01:52:48;;;;;;;3.93;2.13;;;6.90;99.90;;;;;;5025320;28;20552;-83
2021/03/11 01:55:15;;;;;;;5.43;4.67;;;6.90;99.90;;;;;;5026815;28;20202;-83
2021/03/11 01:57:41;;;;;;;8.53;4.40;;;6.90;99.90;;;;;;4992648;28;20207;-83
2021/03/11 02:00:10;;;;;;;6.33;4.87;;;6.90;99.90;;;;;;5026129;28;20272;-83
2021/03/11 02:02:39;;;;;;;6.73;4.23;;;7.00;99.90;;;;;;5024877;28;20683;-83
2021/03/11 02:05:06;;;;;;;6.27;3.60;;;7.00;99.90;;;;;;5022686;28;20661;-83
2021/03/11 02:07:32;;;;;;;6.37;5.77;;;7.00;99.90;;;;;;5008218;28;20617;-84
2021/03/11 02:09:58;;;;;;;6.50;3.63;;;7.00;99.90;;;;;;4975332;28;20230;-84
2021/03/11 02:12:42;;;;;;;2.93;2.73;;;7.10;99.90;;;;;;4989832;28;20222;-86
2021/03/11 02:15:21;;;;;;;6.70;4.77;;;7.00;99.90;;;;;;5028102;28;20344;-83
2021/03/11 02:17:56;;;;;;;8.23;5.17;;;7.10;99.90;;;;;;5028671;28;20217;-83
2021/03/11 02:20:47;;;;;;;4.77;4.30;;;7.10;99.90;;;;;;5028890;28;20209;-86
2021/03/11 02:23:26;;;;;;;9.83;5.50;;;7.10;99.90;;;;;;5027816;28;20729;-83
2021/03/11 02:26:03;;;;;;;8.17;4.83;;;7.10;99.90;;;;;;5045452;28;20239;-84
2021/03/11 02:28:40;;;;;;;4.23;3.27;;;7.10;99.90;;;;;;5029000;28;20218;-83
2021/03/11 02:31:07;;;;;;;4.87;3.97;;;7.10;99.90;;;;;;5028553;28;20737;-83
2021/03/11 02:33:35;;;;;;;3.10;2.90;;;7.20;99.90;;;;;;5011070;28;20229;-84
2021/03/11 02:36:02;;;;;;;4.67;3.37;;;7.20;99.90;;;;;;5027515;28;20267;-83
2021/03/11 02:38:29;;;;;;;4.93;3.63;;;7.20;99.90;;;;;;5011572;28;20639;-83
2021/03/11 02:41:01;;;;;;;8.87;4.93;;;7.30;99.90;;;;;;5012095;28;20186;-87
2021/03/11 02:43:28;;;;;;;6.00;3.80;;;7.30;99.90;;;;;;5029383;28;20701;-84
2021/03/11 02:45:56;;;;;;;5.73;4.57;;;7.30;99.90;;;;;;5011815;28;20232;-84
2021/03/11 02:48:22;;;;;;;8.40;4.93;;;7.30;99.90;;;;;;5012002;28;20210;-83
2021/03/11 02:50:49;;;;;;;4.63;3.67;;;7.40;99.90;;;;;;4994333;28;20268;-83
2021/03/11 02:53:15;;;;;;;4.37;3.90;;;7.40;99.90;;;;;;5010814;28;20221;-84
2021/03/11 02:55:43;;;;;;;3.90;3.50;;;7.40;99.90;;;;;;5011722;28;20239;-82
2021/03/11 02:58:13;;;;;;;8.33;4.27;;;7.50;99.90;;;;;;5046137;28;20186;-83
2021/03/11 03:00:43;;;;;;;3.63;3.30;;;7.50;99.90;;;;;;5010887;28;20565;-83
2021/03/11 03:03:11;;;;;;;6.07;4.07;;;7.50;99.90;;;;;;5027318;28;20218;-84
2021/03/11 03:05:38;;;;;;;6.43;4.87;;;7.60;99.90;;;;;;5010850;28;20213;-83
2021/03/11 03:08:06;;;;;;;8.93;4.93;;;7.60;99.90;;;;;;5007343;28;20632;-83
2021/03/11 03:10:33;;;;;;;7.83;5.33;;;7.60;99.90;;;;;;4992638;28;20222;-83
2021/03/11 03:13:04;;;;;;;5.00;4.60;;;7.70;99.90;;;;;;5009802;28;20279;-84
2021/03/11 03:15:30;;;;;;;5.37;2.70;;;7.70;99.90;;;;;;5025399;28;20309;-86
2021/03/11 03:17:56;;;;;;;6.67;4.57;;;7.80;99.90;;;;;;4992942;28;20300;-84
2021/03/11 03:20:25;;;;;;;7.63;5.13;;;7.80;99.90;;;;;;5011406;28;20294;-82
2021/03/11 03:22:52;;;;;;;4.77;3.77;;;7.80;99.90;;;;;;5045016;28;20182;-85
2021/03/11 03:25:20;;;;;;;6.47;5.33;;;7.80;99.90;;;;;;5044532;28;20182;-82
2021/03/11 03:27:46;;;;;;;6.17;5.47;;;7.80;99.90;;;;;;5044699;28;20214;-82
2021/03/11 03:30:15;;;;;;;6.90;4.77;;;7.80;99.90;;;;;;4998636;28;20352;-83
2021/03/11 03:32:41;;;;;;;5.03;3.67;;;7.80;99.90;;;;;;5016241;28;20280;-83
2021/03/11 03:35:09;;;;;;;9.33;6.73;;;7.90;99.90;;;;;;5027499;28;20298;-85
2021/03/11 03:37:35;;;;;;;8.70;5.30;;;7.90;99.90;;;;;;5027960;28;20205;-82
2021/03/11 03:40:07;;;;;;;7.90;5.40;;;7.90;99.90;;;;;;5011016;28;20252;-84
2021/03/11 03:42:40;;;;;;;6.83;4.70;;;7.90;99.90;;;;;;5026344;28;20565;-84
2021/03/11 03:45:10;;;;;;;6.70;3.97;;;7.90;99.90;;;;;;5045298;28;20206;-84
2021/03/11 03:47:36;;;;;;;7.70;4.77;;;7.90;99.90;;;;;;5007460;28;20218;-85
2021/03/11 03:50:04;;;;;;;12.30;4.40;;;7.90;99.90;;;;;;4998122;28;20708;-83
2021/03/11 03:52:32;;;;;;;8.37;5.77;;;7.90;99.90;;;;;;5032090;28;20189;-84
2021/03/11 03:54:58;;;;;;;5.67;3.90;;;8.00;99.90;;;;;;5014401;28;20808;-82
2021/03/11 03:57:26;;;;;;;7.53;5.87;;;8.00;99.90;;;;;;5014211;28;20221;-84
2021/03/11 03:59:53;;;;;;;7.43;5.40;;;8.00;99.90;;;;;;5049319;28;20225;-83
2021/03/11 04:02:21;;;;;;;14.57;5.83;;;8.00;99.90;;;;;;5031721;28;20621;-83
2021/03/11 04:04:49;;;;;;;6.73;5.23;;;8.00;99.90;;;;;;5013346;28;20312;-85
2021/03/11 04:07:19;;;;;;;4.70;4.23;;;8.00;99.90;;;;;;5049460;28;20208;-85
2021/03/11 04:09:45;;;;;;;7.03;3.93;;;8.10;99.90;;;;;;5029636;28;20222;-83
2021/03/11 04:12:13;;;;;;;4.20;3.00;;;8.10;99.90;;;;;;5047805;28;20271;-84
2021/03/11 04:14:40;;;;;;;7.50;6.23;;;8.10;99.90;;;;;;5047710;28;20697;-83
2021/03/11 04:17:07;;;;;;;7.30;6.70;;;8.20;99.90;;;;;;5047060;28;20218;-83
2021/03/11 04:19:36;;;;;;;10.27;5.40;;;8.20;99.90;;;;;;5030366;28;20201;-84
2021/03/11 04:22:03;;;;;;;10.10;6.30;;;8.20;99.90;;;;;;5013156;28;20302;-83
2021/03/11 04:24:30;;;;;;;9.50;5.83;;;8.20;99.90;;;;;;5030171;28;20702;-83
2021/03/11 04:26:59;;;;;;;9.53;5.23;;;8.30;99.90;;;;;;5029120;28;20301;-83
2021/03/11 04:29:26;;;;;;;7.73;5.43;;;8.30;99.90;;;;;;5029716;28;20226;-84
2021/03/11 04:31:52;;;;;;;7.77;6.00;;;8.30;99.90;;;;;;5029805;28;20658;-84
2021/03/11 04:34:19;;;;;;;9.60;5.77;;;8.40;99.90;;;;;;5014724;28;20576;-83
2021/03/11 04:36:45;;;;;;;7.67;5.53;;;8.40;99.90;;;;;;5029842;28;20237;-84
2021/03/11 04:39:11;;;;;;;5.13;3.93;;;8.40;99.90;;;;;;5017017;28;20222;-86
2021/03/11 04:41:38;;;;;;;7.80;5.47;;;8.40;99.90;;;;;;5017928;28;20302;-83
2021/03/11 04:44:04;;;;;;;6.30;4.73;;;8.40;99.90;;;;;;5009328;28;20237;-83
2021/03/11 04:46:31;;;;;;;8.47;4.80;;;8.50;99.90;;;;;;4987709;28;20187;-84
2021/03/11 04:49:01;;;;;;;6.23;4.60;;;8.50;99.90;;;;;;5046294;28;20359;-84
2021/03/11 04:51:28;;;;;;;6.60;3.70;;;8.50;99.90;;;;;;5013223;28;20212;-83
2021/03/11 04:53:54;;;;;;;7.57;5.20;;;8.50;99.90;;;;;;5029028;28;20209;-84
2021/03/11 04:56:25;;;;;;;9.23;6.80;;;8.60;99.90;;;;;;5012490;28;20229;-83
2021/03/11 04:58:51;;;;;;;6.03;5.33;;;8.60;99.90;;;;;;5027873;28;20174;-85
2021/03/11 05:01:27;;;;;;;12.13;5.90;;;8.50;99.90;;;;;;5004623;28;20282;-83
2021/03/11 05:03:53;;;;;;;8.97;5.23;;;8.50;99.90;;;;;;5028940;28;20259;-85
2021/03/11 05:06:19;;;;;;;10.00;5.13;;;8.50;99.90;;;;;;5013190;28;20229;-86
2021/03/11 05:08:45;;;;;;;7.03;4.57;;;8.50;99.90;;;;;;5028797;28;20210;-82
2021/03/11 05:11:12;;;;;;;5.60;4.13;;;8.50;99.90;;;;;;5012942;28;20777;-82
2021/03/11 05:13:38;;;;;;;9.30;5.73;;;8.60;99.90;;;;;;5014342;28;20187;-85
2021/03/11 05:16:04;;;;;;;10.57;5.13;;;8.60;99.90;;;;;;5012763;28;20567;-81
2021/03/11 05:18:30;;;;;;;6.83;5.33;;;8.60;99.90;;;;;;5009804;28;20218;-86
2021/03/11 05:20:56;;;;;;;7.40;4.80;;;8.70;99.90;;;;;;5004047;28;20217;-83
2021/03/11 05:23:22;;;;;;;5.40;4.27;;;8.70;99.90;;;;;;5014015;28;20222;-82
2021/03/11 05:25:50;;;;;;;8.10;5.17;;;8.70;99.90;;;;;;5011448;28;20268;-86
2021/03/11 05:28:16;;;;;;;8.15;6.05;;;8.70;99.90;;;;;;5047149;28;20174;-86
2021/03/11 05:30:42;;;;;;;8.40;4.27;;;8.80;99.90;;;;;;5011357;28;20262;-86
2021/03/11 05:33:08;;;;;;;6.60;4.80;;;8.80;99.90;;;;;;4995364;28;20292;-85
2021/03/11 05:35:33;;;;;;;7.50;4.93;;;8.80;99.90;;;;;;5011613;28;20245;-84
2021/03/11 05:38:00;;;;;;;8.93;3.90;;;8.70;99.90;;;;;;5010945;28;20256;-84
2021/03/11 05:40:27;;;;;;;8.37;4.03;;;8.70;99.90;;;;;;5012080;28;20182;-84
2021/03/11 05:42:58;;;;;;;7.17;3.50;;;8.80;99.90;;;;;;5027536;28;20217;-84
2021/03/11 05:45:25;;;;;;;10.23;3.17;;;8.80;99.90;;;;;;5013566;28;20694;-84
2021/03/11 05:47:52;;;;;;;4.10;3.80;;;8.80;99.90;;;;;;4975598;28;20772;-84
2021/03/11 05:50:18;;;;;;;7.47;4.70;;;8.90;99.90;;;;;;5008132;28;20246;-86
2021/03/11 05:52:45;;;;;;;8.07;5.53;;;8.90;99.90;;;;;;5023903;28;20190;-85
2021/03/11 05:55:11;;;;;;;5.47;4.90;;;8.90;99.90;;;;;;4992790;28;20187;-84
2021/03/11 05:57:45;;;;;;;6.43;3.67;;;8.90;99.90;;;;;;4991376;28;20275;-85
2021/03/11 06:00:16;;;;;;;8.60;4.37;;;8.90;99.90;;;;;;5028198;28;20231;-84
2021/03/11 06:02:47;;;;;;;21.83;4.47;;;8.90;99.90;;;;;;5018757;28;20230;-87
2021/03/11 06:05:15;;;;;;;4.17;2.67;;;9.00;99.90;;;;;;5030248;28;20221;-84
2021/03/11 06:07:45;;;;;;;5.03;3.70;;;9.00;99.90;;;;;;5011158;28;20190;-85
2021/03/11 06:10:19;;;;;;;4.13;2.43;;;9.10;99.90;;;;;;5011337;28;20574;-85
2021/03/11 06:12:47;;;;;;;5.13;2.97;;;9.10;99.90;;;;;;5027524;28;20224;-84
2021/03/11 06:15:17;;;;;;;15.63;3.13;;;9.10;99.90;;;;;;5001587;28;20245;-86
2021/03/11 06:17:43;;;;;;;3.13;1.37;;;9.20;99.90;;;;;;5027439;28;20210;-84
2021/03/11 06:20:10;;;;;;;5.10;1.93;;;9.30;99.90;;;;;;4991482;28;20214;-86
2021/03/11 06:22:37;;;;;;;1.27;1.00;;;9.40;99.90;;;;;;4976277;28;20643;-84
2021/03/11 06:25:05;;;;;;;1.17;0.83;;;9.50;99.90;;;;;;5006450;28;20584;-84
2021/03/11 06:27:31;;;;;;;6.03;2.00;;;9.70;99.90;;;;;;5022413;28;20757;-86
2021/03/11 06:29:57;;;;;;;5.57;2.13;;;9.70;99.90;;;;;;5010044;28;20264;-85
2021/03/11 06:32:24;;;;;;;4.50;2.13;;;9.70;99.90;;;;;;5006217;28;20250;-86
2021/03/11 06:34:51;;;;;;;1.20;1.20;;;9.70;99.90;;;;;;4998974;28;20252;-84
2021/03/11 06:37:35;;;;;;;3.73;1.63;;;9.80;99.90;;;;;;5027940;28;20186;-86
2021/03/11 06:40:20;;;;;;;1.97;1.70;;;9.80;99.90;;;;;;5008768;28;20217;-85
2021/03/11 06:42:47;;;;;;;2.23;2.03;;;9.70;99.90;;;;;;5011503;28;20245;-85
2021/03/11 06:45:26;;;;;;;1.57;1.27;;;9.70;99.90;;;;;;4997972;28;20246;-84
2021/03/11 06:48:14;;;;;;;6.73;2.23;;;9.70;99.90;;;;;;5006473;28;20271;-84
2021/03/11 06:50:39;;;;;;;4.43;2.57;;;9.70;99.90;;;;;;5005469;28;20226;-85
2021/03/11 06:53:05;;;;;;;2.60;1.37;;;9.70;99.90;;;;;;4994146;28;20304;-88
2021/03/11 06:55:31;;;;;;;5.90;2.47;;;9.70;99.90;;;;;;5012568;28;20550;-84
2021/03/11 06:58:18;;;;;;;1.53;1.43;;;9.80;99.90;;;;;;5010099;28;20217;-85
2021/03/11 07:00:46;;;;;;;4.43;1.90;;;10.10;99.90;;;;;;5026189;28;20225;-86
2021/03/11 07:03:12;;;;;;;5.17;2.17;;;10.40;99.90;;;;;;5009840;28;20622;-85
2021/03/11 07:05:40;;;;;;;2.70;2.00;;;10.80;99.90;;;;;;5009256;28;20209;-84
2021/03/11 07:08:12;;;;;;;6.63;2.10;;;11.00;99.90;;;;;;5044978;28;20221;-84
2021/03/11 07:10:38;;;;;;;5.00;2.00;;;11.30;99.90;;;;;;5027096;28;20222;-84
2021/03/11 07:13:05;;;;;;;3.70;2.40;;;11.40;99.90;;;;;;5009419;28;20212;-85
2021/03/11 07:15:33;;;;;;;3.30;1.43;;;11.60;99.90;;;;;;4994326;28;20722;-83
2021/03/11 07:18:01;;;;;;;3.53;1.83;;;11.70;99.90;;;;;;5015300;28;20754;-85
2021/03/11 07:20:31;;;;;;;11.17;1.63;;;11.30;99.90;;;;;;4981104;28;20291;-85
2021/03/11 07:23:09;;;;;;;3.73;0.87;;;11.50;99.90;;;;;;5009520;28;20189;-84
2021/03/11 07:25:37;;;;;;;2.03;0.90;;;11.30;99.90;;;;;;5026938;28;20174;-85
2021/03/11 07:28:05;;;;;;;6.30;2.70;;;11.30;99.90;;;;;;5026837;28;20222;-88
2021/03/11 07:30:49;;;;;;;3.40;2.23;;;11.40;99.90;;;;;;5026125;28;20226;-87
2021/03/11 07:33:17;;;;;;;2.23;1.20;;;11.30;99.90;;;;;;5024552;28;20222;-84
2021/03/11 07:35:44;;;;;;;7.17;1.20;;;11.70;99.90;;;;;;5025468;28;20226;-85
2021/03/11 07:38:16;;;;;;;10.77;3.03;;;11.50;99.90;;;;;;5042454;28;20301;-86
2021/03/11 07:40:42;;;;;;;20.40;4.13;;;11.30;99.90;;;;;;5024716;28;20197;-86
2021/03/11 07:43:08;;;;;;;3.07;1.23;;;11.10;99.90;;;;;;5027295;28;20279;-84
2021/03/11 07:45:34;;;;;;;4.63;2.10;;;11.40;99.90;;;;;;5008776;28;20212;-83
2021/03/11 07:48:02;;;;;;;4.60;1.63;;;11.70;99.90;;;;;;5009881;28;20206;-85
2021/03/11 07:50:28;;;;;;;8.73;1.40;;;12.00;99.90;;;;;;5026233;28;20781;-86
2021/03/11 07:52:58;;;;;;;5.70;2.07;;;12.20;99.90;;;;;;5009470;28;20186;-83
2021/03/11 07:55:29;;;;;;;31.83;3.93;;;12.40;99.90;;;;;;5027259;28;20182;-83
2021/03/11 07:57:58;;;;;;;10.67;1.83;;;12.70;99.90;;;;;;5001169;28;20237;-83
2021/03/11 08:00:26;;;;;;;8.07;1.20;;;12.90;99.90;;;;;;5025974;28;20303;-86
2021/03/11 08:03:12;;;;;;;2.57;1.63;;;12.70;99.90;;;;;;5042997;28;20210;-87
2021/03/11 08:05:38;;;;;;;7.47;3.07;;;12.70;99.90;;;;;;5026418;28;20229;-87
2021/03/11 08:08:10;;;;;;;7.20;2.43;;;13.30;99.90;;;;;;5008389;28;20321;-88
2021/03/11 08:10:41;;;;;;;19.87;2.87;;;13.30;99.90;;;;;;5027335;28;20238;-85
2021/03/11 08:13:28;;;;;;;11.53;2.80;;;13.30;99.90;;;;;;5025258;28;20295;-85
2021/03/11 08:15:56;;;;;;;12.77;3.03;;;13.20;99.90;;;;;;5025603;28;20217;-87
2021/03/11 08:18:40;;;;;;;13.23;2.60;;;13.50;99.90;;;;;;4992804;28;20559;-86
2021/03/11 08:21:26;;;;;;;9.17;2.73;;;13.80;99.90;;;;;;5025599;28;20218;-85
2021/03/11 08:23:53;;;;;;;12.17;3.30;;;12.80;99.90;;;;;;5025202;28;20217;-85
2021/03/11 08:26:38;;;;;;;6.43;2.57;;;12.30;99.90;;;;;;5042916;28;20214;-85
2021/03/11 08:29:18;;;;;;;10.07;2.67;;;11.90;99.90;;;;;;5041411;28;20236;-86
2021/03/11 08:31:48;;;;;;;7.97;1.73;;;11.30;99.90;;;;;;5025290;28;20181;-85
2021/03/11 08:34:32;;;;;;;2.60;1.43;;;11.50;99.90;;;;;;5031005;28;20279;-85
2021/03/11 08:37:16;;;;;;;14.17;2.60;;;11.80;99.90;;;;;;5027737;28;20221;-84
2021/03/11 08:39:41;;;;;;;15.20;4.70;;;11.40;99.90;;;;;;5028761;28;20210;-86
2021/03/11 08:42:49;;;;;;;4.17;2.50;;;11.00;99.90;;;;;;5012645;28;20210;-87
2021/03/11 08:45:36;;;;;;;17.57;4.33;;;11.00;99.90;;;;;;5029396;28;20221;-86
2021/03/11 08:48:19;;;;;;;5.97;2.00;;;11.10;99.90;;;;;;5017670;28;20229;-90
2021/03/11 08:50:50;;;;;;;6.87;2.33;;;11.00;99.90;;;;;;5013356;28;20222;-85
2021/03/11 08:53:38;;;;;;;13.13;3.23;;;10.90;99.90;;;;;;5037383;28;20307;-87
2021/03/11 08:56:16;;;;;;;9.00;2.30;;;10.80;99.90;;;;;;5024158;28;20221;-85
2021/03/11 08:58:55;;;;;;;7.90;3.30;;;10.80;99.90;;;;;;5028585;28;20194;-85
2021/03/11 09:01:42;;;;;;;12.83;5.60;;;10.80;99.90;;;;;;5048707;28;20273;-87
2021/03/11 09:04:20;;;;;;;22.60;6.83;;;10.70;99.90;;;;;;5028458;28;20226;-87
2021/03/11 09:07:05;;;;;;;11.53;4.53;;;10.60;99.90;;;;;;5046558;28;20287;-89
2021/03/11 09:09:51;;;;;;;13.57;4.70;;;10.60;99.90;;;;;;5028401;28;20796;-85
2021/03/11 09:12:18;;;;;;;13.87;4.90;;;10.50;99.90;;;;;;5027207;28;20643;-86
2021/03/11 09:14:50;;;;;;;19.40;4.63;;;10.50;99.90;;;;;;5027827;28;20224;-88
2021/03/11 09:17:17;;;;;;;14.33;3.97;;;10.50;99.90;;;;;;5011495;28;20214;-86
2021/03/11 09:19:52;;;;;;;28.20;8.57;;;10.50;99.90;;;;;;5027138;28;20194;-86
2021/03/11 09:22:19;;;;;;;35.07;9.27;;;10.50;99.90;;;;;;5027890;28;20233;-87
2021/03/11 09:24:57;;;;;;;26.57;6.17;;;10.50;99.90;;;;;;5004230;28;20222;-87
2021/03/11 09:27:28;;;;;;;18.87;4.07;;;10.50;99.90;;;;;;5036021;28;20240;-85
2021/03/11 09:29:56;;;;;;;18.80;5.20;;;10.40;99.90;;;;;;5011469;28;20237;-86
2021/03/11 09:32:30;;;;;;;12.33;3.37;;;10.40;99.90;;;;;;5009905;28;20313;-87
2021/03/11 09:35:02;;;;;;;16.23;3.53;;;10.30;99.90;;;;;;5016342;28;20269;-87
2021/03/11 09:37:52;;;;;;;16.47;3.50;;;10.20;99.90;;;;;;5017456;28;20186;-87
2021/03/11 09:40:29;;;;;;;8.13;2.60;;;10.10;99.90;;;;;;5046510;28;20248;-86
2021/03/11 09:43:00;;;;;;;5.80;4.13;;;10.10;99.90;;;;;;5046162;28;20659;-87
2021/03/11 09:45:53;;;;;;;10.53;2.07;;;10.00;99.90;;;;;;5027891;28;20206;-86
2021/03/11 09:48:23;;;;;;;4.67;2.33;;;9.90;99.90;;;;;;5018870;28;20248;-87
2021/03/11 09:50:52;;;;;;;16.00;1.97;;;9.90;99.90;;;;;;5028994;28;20340;-86
2021/03/11 09:53:19;;;;;;;11.17;4.63;;;9.70;99.90;;;;;;5027993;28;20214;-86
2021/03/11 09:55:45;;;;;;;9.63;2.93;;;9.70;99.90;;;;;;5026686;28;20182;-85
2021/03/11 09:58:19;;;;;;;4.00;2.17;;;9.70;99.90;;;;;;5012050;28;20540;-85
2021/03/11 10:00:46;;;;;;;13.97;4.30;;;9.70;99.90;;;;;;5009847;28;20255;-87
2021/03/11 10:03:39;;;;;;;5.27;2.27;;;9.70;99.90;;;;;;5002044;28;20216;-87
2021/03/11 10:06:06;;;;;;;15.17;2.93;;;9.70;99.90;;;;;;5003364;28;20214;-87
2021/03/11 10:08:38;;;;;;;8.13;2.33;;;9.70;99.90;;;;;;5030324;28;20697;-84
2021/03/11 10:11:11;;;;;;;28.53;4.33;;;9.60;99.90;;;;;;5038947;28;21025;-85
2021/03/11 10:13:47;;;;;;;21.13;4.07;;;9.70;99.90;;;;;;5025493;28;20195;-86
2021/03/11 10:16:15;;;;;;;7.97;2.10;;;9.60;99.90;;;;;;5024535;28;20217;-87
2021/03/11 10:19:01;;;;;;;10.77;3.10;;;9.70;99.90;;;;;;5007755;28;20305;-87
2021/03/11 10:21:28;;;;;;;10.43;2.33;;;9.60;99.90;;;;;;5023182;28;20648;-86
2021/03/11 10:23:54;;;;;;;8.80;3.07;;;9.60;99.90;;;;;;5008320;28;20273;-87
2021/03/11 10:26:21;;;;;;;5.30;2.20;;;9.60;99.90;;;;;;5007380;28;20214;-87
2021/03/11 10:28:51;;;;;;;17.67;2.63;;;9.60;99.90;;;;;;5024550;28;20622;-86
2021/03/11 10:31:22;;;;;;;8.83;2.90;;;9.50;99.90;;;;;;5026504;28;20182;-87
2021/03/11 10:33:59;;;;;;;9.57;3.30;;;9.40;99.90;;;;;;4991587;28;20216;-86
2021/03/11 10:36:26;;;;;;;13.10;4.53;;;9.20;99.90;;;;;;5002582;28;20213;-86
2021/03/11 10:39:05;;;;;;;16.63;3.17;;;9.10;99.90;;;;;;5008255;28;20210;-87
2021/03/11 10:41:32;;;;;;;16.27;3.17;;;9.10;99.90;;;;;;5017265;28;20706;-86
2021/03/11 10:44:24;;;;;;;16.50;3.00;;;9.10;99.90;;;;;;4971685;28;20187;-86
2021/03/11 10:46:49;;;;;;;11.23;3.60;;;9.10;99.90;;;;;;4985453;28;20626;-87
2021/03/11 10:49:15;;;;;;;5.50;1.67;;;9.10;99.90;;;;;;5025830;28;20322;-86
2021/03/11 10:51:42;;;;;;;13.37;3.73;;;9.10;99.90;;;;;;5023095;28;20218;-86
2021/03/11 10:54:30;;;;;;;4.47;1.57;;;9.10;99.90;;;;;;5024344;28;20223;-86
2021/03/11 10:57:20;;;;;;;12.60;3.10;;;9.20;99.90;;;;;;4996489;28;20370;-85
2021/03/11 10:59:53;;;;;;;6.50;2.57;;;9.20;99.90;;;;;;5009769;28;20254;-86
2021/03/11 11:02:21;;;;;;;14.10;3.33;;;9.20;99.90;;;;;;5004234;28;20223;-84
2021/03/11 11:04:47;;;;;;;16.77;3.77;;;9.20;99.90;;;;;;5003411;28;20194;-87
2021/03/11 11:07:13;;;;;;;12.60;3.30;;;9.30;99.90;;;;;;5005750;28;20646;-85
2021/03/11 11:09:43;;;;;;;6.90;2.47;;;9.20;99.90;;;;;;4983682;28;20215;-88
2021/03/11 11:12:15;;;;;;;10.20;3.00;;;9.20;99.90;;;;;;4983937;28;20300;-87
2021/03/11 11:14:41;;;;;;;11.60;3.77;;;9.20;99.90;;;;;;5008090;28;20206;-87
2021/03/11 11:17:08;;;;;;;15.80;2.70;;;9.20;99.90;;;;;;5025119;28;20766;-88
2021/03/11 11:19:35;;;;;;;27.93;4.73;;;9.20;99.90;;;;;;5008192;28;20199;-88
2021/03/11 11:22:01;;;;;;;11.53;2.37;;;9.20;99.90;;;;;;5024757;28;20260;-87
2021/03/11 11:24:27;;;;;;;11.53;1.43;;;9.30;99.90;;;;;;5007024;28;20244;-87
2021/03/11 11:26:56;;;;;;;7.23;2.80;;;9.40;99.90;;;;;;5008176;28;20272;-87
2021/03/11 11:29:23;;;;;;;4.60;1.57;;;9.40;99.90;;;;;;5023911;28;20523;-87
2021/03/11 11:31:49;;;;;;;7.23;1.67;;;9.50;99.90;;;;;;5007830;28;20190;-90
2021/03/11 11:34:15;;;;;;;2.87;2.43;;;9.50;99.90;;;;;;4993110;28;20183;-88
2021/03/11 11:36:42;;;;;;;7.30;1.00;;;9.50;99.90;;;;;;5023581;28;20214;-88
2021/03/11 11:39:08;;;;;;;4.50;2.10;;;9.40;99.90;;;;;;4991719;28;20210;-88
2021/03/11 11:41:36;;;;;;;11.67;3.40;;;9.30;99.90;;;;;;5023042;28;20226;-88
2021/03/11 11:44:03;;;;;;;7.07;2.07;;;9.30;99.90;;;;;;5024292;28;20225;-88
2021/03/11 11:46:28;;;;;;;5.97;1.80;;;9.30;99.90;;;;;;4993041;28;20186;-88
2021/03/11 11:48:54;;;;;;;1.87;1.77;;;9.30;99.90;;;;;;5007570;28;20214;-89
2021/03/11 11:51:20;;;;;;;15.67;3.27;;;9.50;99.90;;;;;;4990359;28;20317;-87
2021/03/11 11:53:46;;;;;;;3.00;1.33;;;9.60;99.90;;;;;;4991531;28;20237;-90
2021/03/11 11:56:11;;;;;;;4.47;2.57;;;9.60;99.90;;;;;;4990892;28;20357;-88
2021/03/11 11:58:43;;;;;;;2.23;1.53;;;9.70;99.90;;;;;;4992840;28;20210;-87
2021/03/11 12:01:10;;;;;;;3.73;1.70;;;9.60;99.90;;;;;;4993211;28;20217;-88
2021/03/11 12:03:36;;;;;;;2.53;1.20;;;9.60;99.90;;;;;;5006676;28;20218;-88
2021/03/11 12:06:02;;;;;;;8.53;4.20;;;9.60;99.90;;;;;;5006603;28;20218;-87
2021/03/11 12:08:28;;;;;;;2.43;1.60;;;9.70;99.90;;;;;;5009542;28;20556;-88
2021/03/11 12:10:55;;;;;;;2.97;1.63;;;9.70;99.90;;;;;;5006908;28;20239;-87
2021/03/11 12:13:21;;;;;;;6.87;1.40;;;9.80;99.90;;;;;;4992645;28;20671;-86
2021/03/11 12:15:46;;;;;;;8.80;1.53;;;9.90;99.90;;;;;;4990758;28;20718;-87
2021/03/11 12:18:12;;;;;;;2.83;1.07;;;10.00;99.90;;;;;;5007260;28;20216;-89
2021/03/11 12:20:38;;;;;;;2.53;0.73;;;10.10;99.90;;;;;;4974933;28;20203;-89
2021/03/11 12:23:05;;;;;;;1.53;0.83;;;10.10;99.90;;;;;;4974798;28;20222;-88
2021/03/11 12:25:31;;;;;;;6.20;1.50;;;10.20;99.90;;;;;;5007550;28;20397;-88
2021/03/11 12:27:57;;;;;;;2.67;1.30;;;10.30;99.90;;;;;;5006389;28;20218;-88
2021/03/11 12:30:24;;;;;;;5.03;2.20;;;10.30;99.90;;;;;;5007051;28;20235;-88
2021/03/11 12:32:50;;;;;;;4.00;1.17;;;10.40;99.90;;;;;;5007038;28;20223;-87
2021/03/11 12:35:16;;;;;;;3.27;1.63;;;10.30;99.90;;;;;;4974567;28;20785;-89
2021/03/11 12:37:42;;;;;;;11.03;1.00;;;10.40;99.90;;;;;;4990222;28;20183;-87
2021/03/11 12:40:10;;;;;;;7.07;1.10;;;10.40;99.90;;;;;;5007702;28;20175;-88
2021/03/11 12:42:36;;;;;;;1.47;1.37;;;10.50;99.90;;;;;;5006223;28;20707;-88
2021/03/11 12:45:03;;;;;;;1.03;0.40;;;10.50;99.90;;;;;;5006611;28;20210;-87
2021/03/11 12:47:29;;;;;;;5.40;1.03;;;10.50;99.90;;;;;;4986580;28;20259;-88
2021/03/11 12:49:55;;;;;;;5.70;2.07;;;10.50;99.90;;;;;;4972404;28;20228;-88
2021/03/11 12:52:21;;;;;;;9.50;1.23;;;10.40;99.90;;;;;;4990221;28;20191;-87
2021/03/11 12:54:46;;;;;;;2.57;1.37;;;10.40;99.90;;;;;;4973088;28;20250;-88
2021/03/11 12:57:12;;;;;;;2.57;1.53;;;10.30;99.90;;;;;;4989721;28;20215;-87
2021/03/11 12:59:38;;;;;;;0.67;0.60;;;10.30;99.90;;;;;;4973861;28;20227;-87
2021/03/11 13:02:04;;;;;;;0.87;0.87;;;10.20;99.90;;;;;;4974325;28;20215;-86
2021/03/11 13:04:29;;;;;;;5.40;0.77;;;10.20;99.90;;;;;;4990755;28;20219;-87